Time;durP1;ratioP1;P1;durP2;ratioP2;P2;SDS_P1;SDS_P2;PMS_P1;PMS_P2;Temp;Humidity;BMP_temperature;BMP_pressure;BME280_temperature;BME280_humidity;BME280_pressure;Samples;Min_cycle;Max_cycle;Signal;HPM_P1;HPM_P2
2022/03/02 00:02:08;;;;;;;24.63;17.77;;;6.40;99.90;;;;;;5041310;28;20048;-61
2022/03/02 00:04:33;;;;;;;26.63;16.90;;;6.40;99.90;;;;;;5038093;28;20738;-61
2022/03/02 00:06:59;;;;;;;30.45;19.17;;;6.30;99.90;;;;;;5045361;28;20052;-60
2022/03/02 00:09:24;;;;;;;30.73;18.85;;;6.30;99.90;;;;;;5042451;28;20041;-61
2022/03/02 00:11:50;;;;;;;26.15;18.33;;;6.30;99.90;;;;;;5044625;28;20777;-60
2022/03/02 00:14:15;;;;;;;31.77;20.67;;;6.20;99.90;;;;;;5043028;28;20085;-61
2022/03/02 00:16:41;;;;;;;25.67;17.92;;;6.20;99.90;;;;;;5030289;28;20809;-61
2022/03/02 00:19:08;;;;;;;35.88;20.08;;;6.10;99.90;;;;;;5024213;28;20047;-60
2022/03/02 00:21:35;;;;;;;30.10;18.20;;;6.10;99.90;;;;;;5043369;28;20052;-61
2022/03/02 00:24:03;;;;;;;28.38;18.70;;;6.10;99.90;;;;;;5024281;28;20461;-61
2022/03/02 00:26:32;;;;;;;31.00;19.55;;;6.10;99.90;;;;;;5056288;28;20128;-61
2022/03/02 00:28:58;;;;;;;28.75;18.80;;;6.10;99.90;;;;;;5057352;28;20735;-61
2022/03/02 00:31:24;;;;;;;33.13;20.17;;;7.00;99.90;;;;;;5057055;28;20053;-61
2022/03/02 00:33:50;;;;;;;30.55;19.55;;;5.90;99.90;;;;;;5057005;28;20064;-61
2022/03/02 00:36:16;;;;;;;30.75;18.40;;;6.00;99.90;;;;;;5057495;28;20041;-61
2022/03/02 00:38:42;;;;;;;31.40;20.75;;;6.00;99.90;;;;;;5058004;28;20696;-61
2022/03/02 00:41:08;;;;;;;30.13;19.88;;;6.00;99.90;;;;;;5057260;28;20048;-61
2022/03/02 00:43:34;;;;;;;29.98;19.50;;;5.90;99.90;;;;;;5058052;28;20048;-61
2022/03/02 00:46:00;;;;;;;30.45;19.23;;;5.90;99.90;;;;;;5058243;28;20194;-61
2022/03/02 00:48:26;;;;;;;34.53;20.15;;;5.90;99.90;;;;;;5039641;28;20488;-61
2022/03/02 00:50:52;;;;;;;24.83;17.67;;;5.90;99.90;;;;;;5058070;28;20088;-61
2022/03/02 00:53:17;;;;;;;26.50;20.23;;;5.90;99.90;;;;;;5057888;28;20118;-61
2022/03/02 00:55:43;;;;;;;32.28;20.67;;;5.90;99.90;;;;;;5057070;28;20056;-61
2022/03/02 00:58:09;;;;;;;33.17;20.42;;;5.90;99.90;;;;;;5039751;28;20488;-61
2022/03/02 01:00:35;;;;;;;27.92;18.48;;;5.90;99.90;;;;;;5057178;28;20841;-61
2022/03/02 01:03:01;;;;;;;27.90;18.88;;;5.90;99.90;;;;;;5048889;28;20056;-61
2022/03/02 01:05:26;;;;;;;28.33;19.75;;;5.80;99.90;;;;;;5057006;28;20047;-61
2022/03/02 01:07:52;;;;;;;35.85;21.10;;;5.80;99.90;;;;;;5057044;28;20047;-61
2022/03/02 01:10:18;;;;;;;32.50;22.00;;;5.70;99.90;;;;;;5056821;28;20052;-61
2022/03/02 01:12:44;;;;;;;31.27;20.08;;;5.70;99.90;;;;;;5057441;28;20804;-61
2022/03/02 01:15:11;;;;;;;33.30;21.40;;;5.70;99.90;;;;;;5035216;28;20081;-61
2022/03/02 01:17:36;;;;;;;33.42;21.83;;;5.60;99.90;;;;;;5029149;28;20812;-61
2022/03/02 01:20:05;;;;;;;34.65;21.50;;;5.60;99.90;;;;;;5057985;28;20086;-61
2022/03/02 01:22:31;;;;;;;30.63;20.58;;;5.60;99.90;;;;;;5059673;28;20053;-61
2022/03/02 01:24:56;;;;;;;31.10;22.50;;;5.60;99.90;;;;;;5060587;28;20814;-61
2022/03/02 01:27:22;;;;;;;32.38;21.20;;;5.60;99.90;;;;;;5053575;28;20492;-61
2022/03/02 01:29:48;;;;;;;36.42;22.45;;;5.60;99.90;;;;;;5059037;28;20040;-60
2022/03/02 01:32:14;;;;;;;32.03;22.15;;;5.50;99.90;;;;;;5060577;28;20440;-61
2022/03/02 01:34:39;;;;;;;37.53;22.13;;;5.50;99.90;;;;;;5060468;28;20300;-61
2022/03/02 01:37:05;;;;;;;38.20;24.10;;;5.50;99.90;;;;;;5060247;28;20040;-61
2022/03/02 01:39:31;;;;;;;38.65;23.58;;;5.50;99.90;;;;;;5060778;28;20049;-61
2022/03/02 01:41:56;;;;;;;35.35;22.98;;;5.50;99.90;;;;;;5060952;28;20056;-60
2022/03/02 01:44:23;;;;;;;41.63;24.20;;;5.50;99.90;;;;;;5059825;28;20511;-61
2022/03/02 01:46:49;;;;;;;33.80;21.85;;;5.50;99.90;;;;;;5060811;28;20079;-60
2022/03/02 01:49:15;;;;;;;45.65;25.33;;;5.50;99.90;;;;;;5042675;28;20052;-60
2022/03/02 01:51:41;;;;;;;38.50;25.35;;;5.50;99.90;;;;;;5059776;28;20055;-61
2022/03/02 01:54:07;;;;;;;38.85;24.33;;;5.50;99.90;;;;;;5060452;28;20040;-60
2022/03/02 01:56:33;;;;;;;32.47;22.05;;;6.10;99.90;;;;;;5060592;28;20522;-61
2022/03/02 01:58:59;;;;;;;30.35;21.00;;;5.50;99.90;;;;;;5060203;28;20049;-61
2022/03/02 02:01:25;;;;;;;38.97;23.58;;;5.50;99.90;;;;;;5060819;28;20056;-61
2022/03/02 02:03:51;;;;;;;36.25;22.13;;;5.50;99.90;;;;;;5060364;28;20145;-61
2022/03/02 02:06:17;;;;;;;39.13;23.45;;;5.50;99.90;;;;;;5059906;28;20147;-61
2022/03/02 02:08:43;;;;;;;39.85;24.48;;;5.50;99.90;;;;;;5060150;28;20076;-61
2022/03/02 02:11:10;;;;;;;37.53;22.92;;;5.50;99.90;;;;;;5060165;28;20049;-61
2022/03/02 02:13:36;;;;;;;37.42;24.65;;;5.50;99.90;;;;;;5041908;28;20059;-61
2022/03/02 02:16:04;;;;;;;41.42;24.58;;;5.40;99.90;;;;;;5059973;28;20075;-61
2022/03/02 02:18:30;;;;;;;38.20;24.08;;;5.40;99.90;;;;;;5059642;28;20048;-61
2022/03/02 02:21:08;;;;;;;33.78;22.67;;;5.40;99.90;;;;;;5059865;28;20072;-61
2022/03/02 02:23:35;;;;;;;34.08;22.15;;;5.40;99.90;;;;;;5059876;28;20133;-61
2022/03/02 02:26:00;;;;;;;31.58;21.42;;;5.50;99.90;;;;;;5059870;28;20853;-61
2022/03/02 02:28:27;;;;;;;35.72;21.33;;;5.50;99.90;;;;;;5060015;28;20074;-61
2022/03/02 02:30:55;;;;;;;39.90;22.77;;;5.50;99.90;;;;;;5041158;28;20056;-61
2022/03/02 02:33:23;;;;;;;30.45;21.52;;;5.50;99.90;;;;;;5058365;28;20049;-61
2022/03/02 02:35:48;;;;;;;36.95;23.20;;;5.50;99.90;;;;;;5059556;28;20054;-61
2022/03/02 02:38:16;;;;;;;32.65;22.33;;;5.50;99.90;;;;;;5059438;28;20056;-61
2022/03/02 02:40:42;;;;;;;38.53;23.80;;;5.50;99.90;;;;;;5059434;28;20036;-61
2022/03/02 02:43:08;;;;;;;35.20;21.92;;;5.50;99.90;;;;;;5059887;28;20067;-61
2022/03/02 02:45:33;;;;;;;40.95;23.58;;;5.50;99.90;;;;;;5059000;28;20041;-61
2022/03/02 02:47:59;;;;;;;40.28;25.65;;;5.50;99.90;;;;;;5052673;28;20561;-61
2022/03/02 02:50:27;;;;;;;40.80;25.58;;;5.40;99.90;;;;;;5058427;28;20423;-62
2022/03/02 02:52:54;;;;;;;38.33;25.75;;;5.40;99.90;;;;;;5058594;28;20921;-61
2022/03/02 02:55:21;;;;;;;42.58;26.63;;;5.30;99.90;;;;;;5036941;28;20041;-61
2022/03/02 02:57:48;;;;;;;44.65;24.48;;;5.30;99.90;;;;;;5039729;28;20618;-62
2022/03/02 03:00:16;;;;;;;40.05;23.92;;;5.20;99.90;;;;;;5021631;28;20083;-61
2022/03/02 03:02:42;;;;;;;36.40;22.35;;;5.20;99.90;;;;;;5038674;28;20048;-62
2022/03/02 03:05:12;;;;;;;34.95;23.58;;;5.20;99.90;;;;;;5031400;28;20110;-61
2022/03/02 03:07:39;;;;;;;40.97;24.08;;;5.10;99.90;;;;;;5038580;28;20044;-62
2022/03/02 03:10:06;;;;;;;39.08;24.95;;;5.10;99.90;;;;;;5020593;28;20060;-61
2022/03/02 03:12:32;;;;;;;36.88;24.88;;;5.00;99.90;;;;;;5020208;28;20041;-61
2022/03/02 03:14:58;;;;;;;42.58;25.58;;;4.90;99.90;;;;;;5043450;28;20044;-62
2022/03/02 03:17:24;;;;;;;43.85;27.08;;;4.90;99.90;;;;;;5058794;28;20055;-61
2022/03/02 03:19:49;;;;;;;34.78;22.67;;;4.80;99.90;;;;;;5040973;28;20048;-61
2022/03/02 03:22:15;;;;;;;35.55;23.98;;;4.80;99.90;;;;;;5057634;28;20389;-61
2022/03/02 03:24:40;;;;;;;44.10;26.75;;;4.70;99.90;;;;;;5041165;28;20084;-61
2022/03/02 03:27:06;;;;;;;44.22;25.95;;;4.70;99.90;;;;;;5032593;28;20048;-61
2022/03/02 03:29:31;;;;;;;41.15;24.02;;;4.60;99.90;;;;;;5057077;28;20044;-61
2022/03/02 03:31:57;;;;;;;39.88;24.15;;;4.60;99.90;;;;;;5058113;28;20061;-61
2022/03/02 03:34:23;;;;;;;39.40;24.58;;;4.60;99.90;;;;;;5057810;28;20499;-61
2022/03/02 03:36:48;;;;;;;35.45;24.05;;;4.60;99.90;;;;;;5056344;28;20044;-61
2022/03/02 03:39:14;;;;;;;37.47;24.27;;;4.60;99.90;;;;;;5058074;28;20048;-61
2022/03/02 03:41:40;;;;;;;36.13;24.67;;;4.50;99.90;;;;;;5057989;28;20056;-62
2022/03/02 03:44:05;;;;;;;42.25;24.00;;;4.50;99.90;;;;;;5039249;28;20052;-62
2022/03/02 03:46:31;;;;;;;35.03;22.95;;;4.40;99.90;;;;;;5058718;28;20083;-61
2022/03/02 03:48:56;;;;;;;38.38;23.90;;;4.40;99.90;;;;;;5051472;28;20044;-61
2022/03/02 03:51:22;;;;;;;36.47;24.00;;;4.30;99.90;;;;;;5036807;28;20063;-61
2022/03/02 03:53:48;;;;;;;42.70;26.33;;;4.30;99.90;;;;;;5053144;28;20785;-61
2022/03/02 03:56:13;;;;;;;41.30;24.48;;;4.20;99.90;;;;;;5058117;28;20052;-62
2022/03/02 03:58:39;;;;;;;42.08;25.38;;;4.20;99.90;;;;;;5057795;28;20052;-61
2022/03/02 04:01:05;;;;;;;35.67;24.48;;;4.10;99.90;;;;;;5050939;28;20555;-61
2022/03/02 04:03:31;;;;;;;38.35;23.73;;;4.10;99.90;;;;;;5057410;28;20153;-61
2022/03/02 04:05:56;;;;;;;39.97;25.00;;;4.10;99.90;;;;;;5035763;28;20053;-61
2022/03/02 04:08:22;;;;;;;38.95;24.00;;;4.00;99.90;;;;;;5041779;28;20036;-61
2022/03/02 04:10:50;;;;;;;44.58;24.00;;;4.00;99.90;;;;;;5057819;28;20114;-61
2022/03/02 04:13:16;;;;;;;38.25;24.58;;;4.00;99.90;;;;;;5039944;28;20234;-61
2022/03/02 04:15:42;;;;;;;39.75;24.52;;;3.90;99.90;;;;;;5057921;28;20367;-61
2022/03/02 04:18:08;;;;;;;38.75;23.95;;;3.90;99.90;;;;;;5057396;28;20503;-61
2022/03/02 04:20:36;;;;;;;46.13;27.08;;;3.90;99.90;;;;;;5057798;28;20113;-61
2022/03/02 04:23:02;;;;;;;41.65;25.48;;;3.80;99.90;;;;;;5036665;28;20045;-62
2022/03/02 04:25:28;;;;;;;36.42;23.50;;;3.80;99.90;;;;;;5037233;28;20064;-61
2022/03/02 04:27:54;;;;;;;43.42;25.65;;;3.80;99.90;;;;;;5037621;28;20053;-61
2022/03/02 04:30:20;;;;;;;41.28;23.48;;;3.70;99.90;;;;;;5037694;28;20049;-61
2022/03/02 04:32:45;;;;;;;47.47;27.05;;;3.70;99.90;;;;;;5037345;28;20057;-61
2022/03/02 04:35:12;;;;;;;42.60;25.65;;;3.60;99.90;;;;;;5051625;28;20098;-61
2022/03/02 04:37:39;;;;;;;38.90;24.88;;;3.60;99.90;;;;;;5057549;28;21030;-61
2022/03/02 04:40:07;;;;;;;39.13;25.83;;;3.60;99.90;;;;;;5039035;28;20130;-61
2022/03/02 04:42:33;;;;;;;37.90;23.90;;;3.60;99.90;;;;;;5058018;28;20052;-61
2022/03/02 04:44:58;;;;;;;39.53;25.58;;;3.60;99.90;;;;;;5036496;28;20562;-61
2022/03/02 04:47:24;;;;;;;37.05;22.65;;;3.60;99.90;;;;;;5037077;28;20041;-61
2022/03/02 04:49:50;;;;;;;41.45;24.80;;;3.60;99.90;;;;;;5037626;28;20102;-61
2022/03/02 04:52:15;;;;;;;42.72;24.52;;;3.60;99.90;;;;;;5037468;28;20106;-62
2022/03/02 04:57:25;;;;;;;45.47;25.80;;;3.50;99.90;;;;;;5061405;28;20403;-61
2022/03/02 04:59:51;;;;;;;40.28;25.02;;;3.50;99.90;;;;;;5061678;28;20045;-61
2022/03/02 05:02:17;;;;;;;37.05;22.80;;;3.40;99.90;;;;;;5061178;28;20463;-61
2022/03/02 05:04:43;;;;;;;42.78;25.27;;;3.40;99.90;;;;;;5061418;28;20052;-62
2022/03/02 05:07:08;;;;;;;38.30;24.92;;;3.30;99.90;;;;;;5061167;28;20040;-61
2022/03/02 05:09:34;;;;;;;39.15;24.15;;;3.30;99.90;;;;;;5060284;28;20052;-61
2022/03/02 05:12:02;;;;;;;37.42;22.67;;;3.30;99.90;;;;;;5060981;28;20208;-61
2022/03/02 05:14:28;;;;;;;35.38;20.98;;;3.30;99.90;;;;;;5060185;28;20052;-61
2022/03/02 05:16:54;;;;;;;39.50;23.92;;;3.30;99.90;;;;;;5060707;28;20061;-61
2022/03/02 05:19:19;;;;;;;34.92;24.88;;;3.30;99.90;;;;;;5060898;28;20044;-61
2022/03/02 05:21:45;;;;;;;40.83;24.50;;;3.20;99.90;;;;;;5060167;28;20055;-61
2022/03/02 05:24:10;;;;;;;31.80;21.65;;;3.30;99.90;;;;;;5043397;28;20060;-62
2022/03/02 05:26:36;;;;;;;37.97;25.00;;;3.20;99.90;;;;;;5061252;28;20084;-61
2022/03/02 05:29:02;;;;;;;42.40;25.02;;;3.20;99.90;;;;;;5060519;28;20127;-61
2022/03/02 05:31:28;;;;;;;35.38;22.83;;;3.20;99.90;;;;;;5061252;28;20067;-62
2022/03/02 05:33:53;;;;;;;42.67;25.58;;;3.10;99.90;;;;;;5043192;28;20052;-62
2022/03/02 05:36:19;;;;;;;41.28;25.25;;;3.20;99.90;;;;;;5060053;28;20531;-61
2022/03/02 05:38:44;;;;;;;33.75;22.65;;;3.10;99.90;;;;;;5061160;28;20153;-61
2022/03/02 05:41:10;;;;;;;39.95;23.33;;;3.00;99.90;;;;;;5061224;28;20113;-61
2022/03/02 05:43:36;;;;;;;39.22;24.10;;;3.10;99.90;;;;;;5060162;28;20043;-61
2022/03/02 05:46:02;;;;;;;40.40;24.83;;;3.00;99.90;;;;;;5060835;28;21015;-61
2022/03/02 05:48:28;;;;;;;37.58;21.25;;;3.00;99.90;;;;;;5043087;28;20052;-61
2022/03/02 05:50:54;;;;;;;34.75;21.63;;;3.00;99.90;;;;;;5060472;28;20170;-61
2022/03/02 05:53:19;;;;;;;34.13;22.60;;;3.10;99.90;;;;;;5061324;28;20048;-61
2022/03/02 05:55:45;;;;;;;37.33;22.40;;;3.00;99.90;;;;;;5060981;28;20701;-61
2022/03/02 05:58:10;;;;;;;35.97;23.60;;;3.00;99.90;;;;;;5060009;28;20048;-61
2022/03/02 06:00:36;;;;;;;30.67;21.65;;;2.80;99.90;;;;;;5060253;28;20055;-61
2022/03/02 06:03:02;;;;;;;36.30;23.23;;;2.90;99.90;;;;;;5059993;28;20464;-61
2022/03/02 06:05:28;;;;;;;30.40;20.98;;;2.90;99.90;;;;;;5059668;28;20186;-61
2022/03/02 06:07:53;;;;;;;37.10;23.55;;;2.90;99.90;;;;;;5056074;28;20092;-61
2022/03/02 06:10:19;;;;;;;37.47;22.48;;;2.90;99.90;;;;;;5058281;28;20125;-61
2022/03/02 06:12:46;;;;;;;36.47;23.48;;;2.90;99.90;;;;;;5056724;28;20040;-61
2022/03/02 06:15:12;;;;;;;32.50;23.80;;;2.80;99.90;;;;;;5056726;28;20052;-61
2022/03/02 06:17:39;;;;;;;38.10;24.38;;;3.30;99.90;;;;;;5038224;28;20101;-61
2022/03/02 06:20:05;;;;;;;36.42;23.00;;;2.90;99.90;;;;;;5056670;28;20147;-61
2022/03/02 06:22:31;;;;;;;42.92;25.02;;;2.80;99.90;;;;;;5045346;28;20352;-61
2022/03/02 06:24:58;;;;;;;36.72;22.90;;;2.80;99.90;;;;;;5041412;28;20110;-61
2022/03/02 06:27:24;;;;;;;32.25;22.35;;;2.80;99.90;;;;;;5036996;28;20044;-62
2022/03/02 06:29:49;;;;;;;36.40;21.83;;;2.80;99.90;;;;;;5036622;28;20049;-61
2022/03/02 06:32:15;;;;;;;38.20;24.60;;;2.80;99.90;;;;;;5035549;28;20068;-61
2022/03/02 06:34:41;;;;;;;30.33;19.58;;;2.80;99.90;;;;;;5038396;28;20158;-61
2022/03/02 06:37:07;;;;;;;34.83;23.73;;;2.80;99.90;;;;;;5057030;28;20106;-61
2022/03/02 06:39:33;;;;;;;38.22;23.15;;;2.80;99.90;;;;;;5056325;28;20037;-61
2022/03/02 06:42:17;;;;;;;40.63;24.17;;;2.70;99.90;;;;;;5038941;28;20068;-61
2022/03/02 06:44:56;;;;;;;46.05;27.30;;;2.70;99.90;;;;;;5055475;28;20044;-61
2022/03/02 06:47:39;;;;;;;42.95;26.65;;;2.70;99.90;;;;;;5055250;28;20111;-61
2022/03/02 06:50:07;;;;;;;;;;;2.60;99.90;;;;;;5056848;28;20044;-61
2022/03/02 06:52:38;;;;;;;36.83;22.10;;;2.60;99.90;;;;;;5056547;28;19924;-61
2022/03/02 06:55:07;;;;;;;35.95;21.30;;;2.60;99.90;;;;;;5034135;28;20586;-61
2022/03/02 06:57:34;;;;;;;34.25;23.92;;;2.70;99.90;;;;;;5030516;28;20099;-61
2022/03/02 07:00:16;;;;;;;41.25;23.42;;;2.70;99.90;;;;;;5055566;28;20148;-61
2022/03/02 07:02:46;;;;;;;36.05;24.17;;;2.70;99.90;;;;;;5055463;28;20044;-62
2022/03/02 07:05:12;;;;;;;34.05;20.60;;;2.70;99.90;;;;;;5037871;28;20882;-61
2022/03/02 07:07:38;;;;;;;34.88;20.80;;;2.80;99.90;;;;;;5037958;28;20048;-61
2022/03/02 07:10:06;;;;;;;39.38;26.98;;;2.90;99.90;;;;;;5056517;28;20080;-61
2022/03/02 07:12:31;;;;;;;38.33;23.35;;;2.90;99.90;;;;;;5055786;28;20048;-61
2022/03/02 07:14:57;;;;;;;33.45;22.52;;;3.00;99.90;;;;;;5055618;28;20095;-60
2022/03/02 07:17:26;;;;;;;35.13;23.52;;;3.00;99.90;;;;;;5038262;28;20063;-62
2022/03/02 07:19:52;;;;;;;35.92;22.90;;;3.00;99.90;;;;;;5056405;28;20056;-60
2022/03/02 07:22:21;;;;;;;36.72;23.25;;;3.10;99.90;;;;;;5055695;28;20040;-60
2022/03/02 07:24:52;;;;;;;38.50;22.48;;;3.10;99.90;;;;;;5037672;28;20052;-61
2022/03/02 07:27:19;;;;;;;40.45;24.92;;;3.10;99.90;;;;;;5037944;28;20045;-60
2022/03/02 07:29:48;;;;;;;37.55;25.13;;;3.10;99.90;;;;;;5055264;28;20056;-60
2022/03/02 07:32:17;;;;;;;36.20;22.65;;;3.10;99.90;;;;;;5020662;28;20103;-61
2022/03/02 07:34:43;;;;;;;40.60;22.23;;;3.20;99.90;;;;;;5036281;28;20045;-61
2022/03/02 07:37:09;;;;;;;37.88;24.42;;;3.20;99.90;;;;;;5026227;28;20052;-61
2022/03/02 07:39:35;;;;;;;41.30;25.23;;;3.20;99.90;;;;;;5001302;28;20132;-60
2022/03/02 07:42:03;;;;;;;42.63;24.98;;;3.20;99.90;;;;;;4670464;28;9999872;-61
2022/03/02 07:44:29;;;;;;;36.97;25.08;;;3.10;99.90;;;;;;5016310;28;20523;-61
2022/03/02 07:46:54;;;;;;;45.58;25.25;;;3.20;99.90;;;;;;5012957;28;20049;-62
2022/03/02 07:49:20;;;;;;;36.85;23.45;;;3.20;99.90;;;;;;5016601;28;20045;-61
2022/03/02 07:51:46;;;;;;;39.28;27.95;;;3.30;99.90;;;;;;5011776;28;20046;-61
2022/03/02 07:54:14;;;;;;;36.90;23.10;;;3.40;99.90;;;;;;5002969;28;20040;-61
2022/03/02 07:56:40;;;;;;;35.65;22.75;;;3.40;99.90;;;;;;5017868;28;20707;-61
2022/03/02 07:59:07;;;;;;;36.60;22.67;;;3.50;99.90;;;;;;5001991;28;20107;-61
2022/03/02 08:01:35;;;;;;;37.90;24.05;;;3.60;99.90;;;;;;5016934;28;20128;-61
2022/03/02 08:04:09;;;;;;;39.88;25.40;;;3.60;99.90;;;;;;5014413;28;20055;-61
2022/03/02 08:06:37;;;;;;;40.90;23.27;;;3.70;99.90;;;;;;5016677;28;20059;-61
2022/03/02 08:09:06;;;;;;;47.03;27.63;;;3.70;99.90;;;;;;5024306;28;20144;-61
2022/03/02 08:11:33;;;;;;;38.90;25.02;;;3.70;99.90;;;;;;5015461;28;20053;-61
2022/03/02 08:14:03;;;;;;;46.60;26.13;;;3.70;99.90;;;;;;5014099;28;20041;-61
2022/03/02 08:16:30;;;;;;;38.28;23.90;;;3.80;99.90;;;;;;5014090;28;20041;-61
2022/03/02 08:18:58;;;;;;;39.67;23.63;;;3.90;99.90;;;;;;5013881;28;20124;-61
2022/03/02 08:21:30;;;;;;;38.13;25.33;;;3.90;99.90;;;;;;4999345;28;20055;-61
2022/03/02 08:23:57;;;;;;;37.85;24.50;;;4.00;99.90;;;;;;5020621;28;20130;-61
2022/03/02 08:26:24;;;;;;;36.25;25.83;;;4.10;99.90;;;;;;5018703;28;20064;-61
2022/03/02 08:28:55;;;;;;;42.22;23.35;;;4.20;99.90;;;;;;5019987;28;20044;-61
2022/03/02 08:31:24;;;;;;;34.40;22.67;;;4.20;99.90;;;;;;5010120;28;20505;-61
2022/03/02 08:33:51;;;;;;;42.80;25.95;;;4.30;99.90;;;;;;5042260;28;20057;-61
2022/03/02 08:36:21;;;;;;;38.70;24.65;;;4.40;99.90;;;;;;5042161;28;20044;-62
2022/03/02 08:38:49;;;;;;;41.90;25.05;;;4.50;99.90;;;;;;5038508;28;20174;-61
2022/03/02 08:41:17;;;;;;;40.25;22.45;;;4.50;99.90;;;;;;5035841;28;20132;-62
2022/03/02 08:43:44;;;;;;;40.17;25.33;;;4.60;99.90;;;;;;5035661;28;20037;-61
2022/03/02 08:46:10;;;;;;;34.08;23.10;;;4.70;99.90;;;;;;5042248;28;20163;-61
2022/03/02 08:48:36;;;;;;;38.58;23.38;;;4.70;99.90;;;;;;5041764;28;20956;-61
2022/03/02 08:51:02;;;;;;;38.45;23.27;;;4.80;99.90;;;;;;5044425;28;20075;-61
2022/03/02 08:53:29;;;;;;;40.92;21.45;;;4.90;99.90;;;;;;5020153;28;20715;-61
2022/03/02 08:55:58;;;;;;;33.15;19.77;;;5.10;99.90;;;;;;5048053;28;20063;-62
2022/03/02 08:58:25;;;;;;;32.53;22.00;;;5.30;99.90;;;;;;5041942;28;20032;-61
2022/03/02 09:00:52;;;;;;;35.88;21.60;;;5.50;99.90;;;;;;5041341;28;20878;-61
2022/03/02 09:03:22;;;;;;;31.73;22.15;;;5.50;99.90;;;;;;5040904;28;20056;-61
2022/03/02 09:05:51;;;;;;;35.13;22.33;;;5.60;99.90;;;;;;5039747;28;20051;-62
2022/03/02 09:08:17;;;;;;;35.97;21.45;;;5.80;99.90;;;;;;5031582;28;20872;-62
2022/03/02 09:10:43;;;;;;;36.33;21.30;;;5.60;99.90;;;;;;5025823;28;20045;-62
2022/03/02 09:13:10;;;;;;;35.83;24.52;;;5.60;99.90;;;;;;5042082;28;20040;-61
2022/03/02 09:15:37;;;;;;;37.50;22.65;;;5.60;99.90;;;;;;5058922;28;20052;-62
2022/03/02 09:18:04;;;;;;;45.80;23.70;;;5.70;99.90;;;;;;5040230;28;20044;-61
2022/03/02 09:20:30;;;;;;;35.95;22.95;;;5.80;99.90;;;;;;5021276;28;20067;-61
2022/03/02 09:22:59;;;;;;;31.67;20.75;;;5.90;99.90;;;;;;5040670;28;20049;-62
2022/03/02 09:25:28;;;;;;;32.55;22.00;;;5.80;99.90;;;;;;5021839;28;20060;-62
2022/03/02 09:27:56;;;;;;;32.20;21.50;;;5.90;99.90;;;;;;5021984;28;20081;-61
2022/03/02 09:30:21;;;;;;;27.05;20.98;;;5.90;99.90;;;;;;5040630;28;20083;-62
2022/03/02 09:32:55;;;;;;;31.48;22.27;;;6.00;99.90;;;;;;5040614;28;20779;-62
2022/03/02 09:35:21;;;;;;;;;;;6.20;99.90;;;;;;5047516;28;20051;-62
2022/03/02 09:37:54;;;;;;;33.85;22.08;;;6.10;99.90;;;;;;5060100;28;19944;-62
2022/03/02 09:40:28;;;;;;;27.85;20.75;;;6.20;99.90;;;;;;5060154;28;20048;-61
2022/03/02 09:43:05;;;;;;;32.33;20.98;;;6.30;99.90;;;;;;5059172;28;20041;-62
2022/03/02 09:45:32;;;;;;;29.55;19.92;;;6.80;99.90;;;;;;5060476;28;20807;-62
2022/03/02 09:48:00;;;;;;;33.17;19.08;;;7.20;99.90;;;;;;5060331;28;20059;-60
2022/03/02 09:50:33;;;;;;;32.28;21.52;;;7.90;99.90;;;;;;5059386;28;20071;-61
2022/03/02 09:53:02;;;;;;;29.52;20.08;;;8.90;99.90;;;;;;5059977;28;20367;-62
2022/03/02 09:55:28;;;;;;;28.83;18.77;;;9.70;99.90;;;;;;5060155;28;20048;-62
2022/03/02 09:57:57;;;;;;;28.55;19.60;;;10.50;99.90;;;;;;5059200;28;20562;-62
2022/03/02 10:00:26;;;;;;;31.25;21.70;;;11.10;99.90;;;;;;5041796;28;20056;-62
2022/03/02 10:02:55;;;;;;;27.33;19.15;;;11.50;97.90;;;;;;5041054;28;20048;-62
2022/03/02 10:05:26;;;;;;;30.52;21.60;;;12.40;99.90;;;;;;5060427;28;20040;-62
2022/03/02 10:07:58;;;;;;;27.63;17.80;;;12.40;98.60;;;;;;5059951;28;20052;-62
2022/03/02 10:10:24;;;;;;;26.25;18.45;;;12.90;99.90;;;;;;5042483;28;20135;-62
2022/03/02 10:12:57;;;;;;;25.65;17.77;;;13.50;99.90;;;;;;5060677;28;20080;-62
2022/03/02 10:15:22;;;;;;;26.17;18.20;;;14.00;97.70;;;;;;5060778;28;20047;-62
2022/03/02 10:17:51;;;;;;;30.67;19.00;;;14.50;97.90;;;;;;5060325;28;20056;-62
2022/03/02 10:20:21;;;;;;;28.10;18.90;;;14.20;96.50;;;;;;5060833;28;20098;-62
2022/03/02 10:22:46;;;;;;;33.10;19.70;;;14.40;96.10;;;;;;5042897;28;20056;-62
2022/03/02 10:25:17;;;;;;;25.13;17.83;;;15.00;96.00;;;;;;5059433;28;20049;-62
2022/03/02 10:28:02;;;;;;;23.05;18.73;;;14.80;94.80;;;;;;5041975;28;20062;-62
2022/03/02 10:30:42;;;;;;;32.30;19.48;;;15.00;88.50;;;;;;5059546;28;20393;-59
2022/03/02 10:33:24;;;;;;;23.55;18.25;;;15.30;91.00;;;;;;5059643;28;20429;-62
2022/03/02 10:36:07;;;;;;;25.83;18.67;;;14.30;86.30;;;;;;5059480;28;20155;-62
2022/03/02 10:38:59;;;;;;;26.05;16.83;;;14.00;90.00;;;;;;5058816;28;20816;-62
2022/03/02 10:41:27;;;;;;;26.10;18.35;;;14.70;88.20;;;;;;5047876;28;20049;-62
2022/03/02 10:44:03;;;;;;;27.90;19.73;;;15.60;92.90;;;;;;5059884;28;20151;-63
2022/03/02 10:46:30;;;;;;;25.50;17.95;;;15.30;84.30;;;;;;5058970;28;20453;-62
2022/03/02 10:49:04;;;;;;;25.52;17.67;;;14.80;89.20;;;;;;5059320;28;20462;-62
2022/03/02 10:51:32;;;;;;;23.30;16.83;;;13.90;84.90;;;;;;5059553;28;20522;-62
2022/03/02 10:54:00;;;;;;;25.25;18.10;;;13.40;92.20;;;;;;5058189;28;20044;-62
2022/03/02 10:56:27;;;;;;;24.67;16.92;;;12.90;93.60;;;;;;5059300;28;20059;-61
2022/03/02 10:58:54;;;;;;;25.83;18.35;;;12.00;95.30;;;;;;5058306;28;20044;-62
2022/03/02 11:01:20;;;;;;;25.08;16.08;;;11.30;96.90;;;;;;5059267;28;20059;-62
2022/03/02 11:03:46;;;;;;;24.05;17.63;;;10.70;97.90;;;;;;5059207;28;20599;-62
2022/03/02 11:06:13;;;;;;;30.88;20.80;;;10.20;96.90;;;;;;5058828;28;20151;-62
2022/03/02 11:08:41;;;;;;;27.65;17.52;;;9.60;98.60;;;;;;5059576;28;20051;-62
2022/03/02 11:11:08;;;;;;;26.05;17.13;;;9.20;99.90;;;;;;5041900;28;20061;-62
2022/03/02 11:13:34;;;;;;;26.10;17.30;;;9.10;99.40;;;;;;5056661;28;20036;-62
2022/03/02 11:16:01;;;;;;;28.30;17.30;;;9.10;99.90;;;;;;5047704;28;20669;-62
2022/03/02 11:18:41;;;;;;;26.38;18.90;;;9.00;99.90;;;;;;5039183;28;20048;-61
2022/03/02 11:21:13;;;;;;;25.67;16.42;;;8.90;99.80;;;;;;5020467;28;20159;-61
2022/03/02 11:23:46;;;;;;;23.23;16.25;;;8.90;99.90;;;;;;5038616;28;20087;-61
2022/03/02 11:26:16;;;;;;;24.33;16.17;;;9.10;99.90;;;;;;5021345;28;20053;-61
2022/03/02 11:28:53;;;;;;;27.13;16.80;;;9.20;99.60;;;;;;5038485;28;20492;-62
2022/03/02 11:31:24;;;;;;;22.40;15.50;;;9.20;99.20;;;;;;5038512;28;20052;-62
2022/03/02 11:33:50;;;;;;;25.65;16.90;;;9.30;99.60;;;;;;5038995;28;20131;-62
2022/03/02 11:36:18;;;;;;;24.10;15.00;;;9.20;99.00;;;;;;5031289;28;20177;-62
2022/03/02 11:38:47;;;;;;;23.58;15.43;;;9.20;99.40;;;;;;5038442;28;20818;-61
2022/03/02 11:41:14;;;;;;;27.95;17.27;;;9.30;99.60;;;;;;5038038;28;20818;-61
2022/03/02 11:43:39;;;;;;;23.90;16.52;;;9.20;99.00;;;;;;5020990;28;20049;-61
2022/03/02 11:46:08;;;;;;;29.42;19.63;;;9.20;99.20;;;;;;5058299;28;20054;-62
2022/03/02 11:48:37;;;;;;;24.02;16.73;;;9.10;99.20;;;;;;5057448;28;20874;-62
2022/03/02 11:51:15;;;;;;;20.98;15.65;;;9.20;99.10;;;;;;5040399;28;20472;-62
2022/03/02 11:53:43;;;;;;;23.13;17.65;;;9.20;99.00;;;;;;5058914;28;20044;-61
2022/03/02 11:56:12;;;;;;;26.63;18.15;;;9.30;98.80;;;;;;5058164;28;20040;-61
2022/03/02 11:58:54;;;;;;;27.20;15.90;;;9.30;99.00;;;;;;5058555;28;20717;-61
2022/03/02 12:01:21;;;;;;;23.60;14.02;;;9.20;98.60;;;;;;5058290;28;20048;-61
2022/03/02 12:04:01;;;;;;;25.17;17.48;;;9.20;99.00;;;;;;5057529;28;20496;-61
2022/03/02 12:06:30;;;;;;;23.23;15.70;;;9.30;99.00;;;;;;5057307;28;20074;-61
2022/03/02 12:08:57;;;;;;;24.63;15.05;;;9.30;98.90;;;;;;5036452;28;20439;-61
2022/03/02 12:11:34;;;;;;;23.55;17.55;;;9.30;98.80;;;;;;5037656;28;20150;-61
2022/03/02 12:14:18;;;;;;;21.75;15.38;;;9.30;97.50;;;;;;5038363;28;20041;-61
2022/03/02 12:16:46;;;;;;;22.00;14.60;;;9.40;98.10;;;;;;5037074;28;20562;-62
2022/03/02 12:19:24;;;;;;;23.92;15.60;;;9.40;98.30;;;;;;5037910;28;20383;-62
2022/03/02 12:21:53;;;;;;;19.67;14.55;;;9.60;98.90;;;;;;5037252;28;20110;-62
2022/03/02 12:24:26;;;;;;;22.13;16.17;;;9.60;98.00;;;;;;5019382;28;20041;-61
2022/03/02 12:26:58;;;;;;;20.17;13.18;;;9.60;96.10;;;;;;5020409;28;21035;-61
2022/03/02 12:29:25;;;;;;;18.20;13.13;;;9.60;96.80;;;;;;5038176;28;20045;-61
2022/03/02 12:32:08;;;;;;;24.40;14.20;;;9.80;96.30;;;;;;5037052;28;20063;-62
2022/03/02 12:34:43;;;;;;;20.90;13.77;;;9.80;95.90;;;;;;5038359;28;20300;-61
2022/03/02 12:37:10;;;;;;;25.92;12.90;;;9.80;96.50;;;;;;5035776;28;20048;-62
2022/03/02 12:39:36;;;;;;;25.35;14.48;;;9.90;96.30;;;;;;5036736;28;20048;-61
2022/03/02 12:42:07;;;;;;;18.55;13.45;;;10.00;96.10;;;;;;5037604;28;20126;-61